Time;durP1;ratioP1;P1;durP2;ratioP2;P2;SDS_P1;SDS_P2;PMS_P1;PMS_P2;Temp;Humidity;BMP_temperature;BMP_pressure;BME280_temperature;BME280_humidity;BME280_pressure;Samples;Min_cycle;Max_cycle;Signal;HPM_P1;HPM_P2
2022/08/18 00:02:17;;;;;;;;;;;;;;;;;;2212862;59;1822;-54
2022/08/18 00:04:50;;;;;;;;;;;;;;;;;;2213901;59;1323;-53
2022/08/18 00:07:24;;;;;;;;;;;;;;;;;;2213619;67;1280;-53
2022/08/18 00:10:00;;;;;;;;;;;;;;;;;;2214020;67;1270;-53
2022/08/18 00:12:35;;;;;;;;;;;;;;;;;;2213206;59;1246;-53
2022/08/18 00:15:09;;;;;;;;;;;;;;;;;;2213225;67;1234;-55
2022/08/18 00:17:42;;;;;;;;;;;;;;;;;;2213764;67;1246;-53
2022/08/18 00:20:19;;;;;;;;;;;;;;;;;;2213789;66;1931;-53
2022/08/18 00:22:55;;;;;;;;;;;;;;;;;;2213335;67;1172;-54
2022/08/18 00:36:11;;;;;;;;;;;;;;;;;;2273682;53;2548;-63
2022/08/18 00:38:44;;;;;;;;;;;;;;;;;;2216860;58;1182;-64
2022/08/18 00:41:17;;;;;;;;;;;;;;;;;;2217139;59;1934;-64
2022/08/18 00:43:51;;;;;;;;;;;;;;;;;;2216901;59;1218;-64
2022/08/18 00:46:26;;;;;;;;;;;;;;;;;;2213398;66;1224;-64
2022/08/18 00:48:59;;;;;;;;;;;;;;;;;;2213024;66;1206;-64
2022/08/18 00:51:39;;;;;;;;;;;;;;;;;;2212911;67;1173;-63
2022/08/18 00:54:16;;;;;;;;;;;;;;;;;;2212548;59;1287;-65
2022/08/18 00:56:50;;;;;;;;;;;;;;;;;;2212744;66;1214;-62
2022/08/18 00:59:30;;;;;;;;;;;;;;;;;;2212478;66;1282;-64
2022/08/18 01:02:04;;;;;;;;;;;;;;;;;;2212819;59;1941;-64
2022/08/18 01:04:42;;;;;;;;;;;;;;;;;;2212816;67;1718;-63
2022/08/18 01:07:20;;;;;;;;;;;;;;;;;;2212670;66;1180;-65
2022/08/18 01:09:54;;;;;;;;;;;;;;;;;;2212335;59;1222;-64
2022/08/18 01:12:27;;;;;;;;;;;;;;;;;;2212968;59;1978;-64
2022/08/18 01:15:01;;;;;;;;;;;;;;;;;;2213430;67;1323;-64
2022/08/18 01:23:20;;;;;;;;;;;;;;;;;;2212624;67;1119;-64
2022/08/18 01:26:01;;;;;;;;;;;;;;;;;;2212045;66;1266;-64
2022/08/18 01:28:36;;;;;;;;;;;;;;;;;;2212094;59;1160;-63
2022/08/18 01:31:12;;;;;;;;;;;;;;;;;;2212479;67;1141;-65
2022/08/18 01:33:46;;;;;;;;;;;;;;;;;;2212861;59;1271;-64
2022/08/18 01:36:20;;;;;;;;;;;;;;;;;;2212644;59;1392;-63
2022/08/18 01:38:56;;;;;;;;;;;;;;;;;;2213877;66;1140;-64
2022/08/18 01:41:29;;;;;;;;;;;;;;;;;;2212323;66;1935;-64
2022/08/18 01:44:04;;;;;;;;;;;;;;;;;;2212763;59;1226;-64
2022/08/18 01:46:37;;;;;;;;;;;;;;;;;;2212421;67;1259;-63
2022/08/18 01:49:12;;;;;;;;;;;;;;;;;;2212054;67;1172;-64
2022/08/18 01:51:45;;;;;;;;;;;;;;;;;;2212132;67;1077;-64
2022/08/18 01:54:21;;;;;;;;;;;;;;;;;;2212416;66;1278;-64
2022/08/18 01:56:54;;;;;;;;;;;;;;;;;;2212061;67;1110;-64
2022/08/18 01:59:27;;;;;;;;;;;;;;;;;;2212357;67;1210;-64
2022/08/18 02:02:00;;;;;;;;;;;;;;;;;;2212198;59;1933;-62
2022/08/18 02:04:35;;;;;;;;;;;;;;;;;;2212718;59;1250;-64
2022/08/18 02:07:10;;;;;;;;;;;;;;;;;;2212556;67;1182;-64
2022/08/18 02:09:46;;;;;;;;;;;;;;;;;;2212494;59;1175;-64
2022/08/18 02:12:19;;;;;;;;;;;;;;;;;;2213073;59;1369;-64
2022/08/18 02:14:52;;;;;;;;;;;;;;;;;;2212748;67;1305;-64
2022/08/18 02:17:26;;;;;;;;;;;;;;;;;;2212151;66;1301;-64
2022/08/18 02:19:59;;;;;;;;;;;;;;;;;;2212796;66;1150;-63
2022/08/18 02:22:32;;;;;;;;;;;;;;;;;;2212397;67;1978;-65
2022/08/18 02:25:09;;;;;;;;;;;;;;;;;;2213398;67;1255;-63
2022/08/18 02:27:42;;;;;;;;;;;;;;;;;;2212812;67;1111;-64
2022/08/18 02:30:17;;;;;;;;;;;;;;;;;;2212525;66;1254;-64
2022/08/18 02:32:50;;;;;;;;;;;;;;;;;;2212354;67;1195;-63
2022/08/18 02:35:23;;;;;;;;;;;;;;;;;;2212337;59;1655;-62
2022/08/18 02:37:59;;;;;;;;;;;;;;;;;;2213636;67;1269;-64
2022/08/18 02:40:35;;;;;;;;;;;;;;;;;;2212871;67;1983;-64
2022/08/18 02:43:09;;;;;;;;;;;;;;;;;;2213873;59;1239;-64
2022/08/18 02:45:42;;;;;;;;;;;;;;;;;;2213261;67;1229;-63
2022/08/18 02:48:15;;;;;;;;;;;;;;;;;;2213362;67;1240;-64
2022/08/18 02:50:48;;;;;;;;;;;;;;;;;;2213120;67;1546;-64
2022/08/18 02:53:23;;;;;;;;;;;;;;;;;;2212324;67;1151;-64
2022/08/18 02:56:13;;;;;;;;;;;;;;;;;;2213803;67;1281;-64
2022/08/18 02:58:52;;;;;;;;;;;;;;;;;;2213311;67;1149;-64
2022/08/18 03:01:27;;;;;;;;;;;;;;;;;;2213014;59;1929;-64
2022/08/18 03:04:01;;;;;;;;;;;;;;;;;;2212197;59;2365;-64
2022/08/18 03:06:36;;;;;;;;;;;;;;;;;;2214137;59;1314;-64
2022/08/18 03:09:10;;;;;;;;;;;;;;;;;;2213324;59;1412;-64
2022/08/18 03:11:46;;;;;;;;;;;;;;;;;;2214000;59;1445;-64
2022/08/18 03:14:20;;;;;;;;;;;;;;;;;;2212449;67;1228;-64
2022/08/18 03:16:53;;;;;;;;;;;;;;;;;;2212753;67;1251;-64
2022/08/18 03:19:27;;;;;;;;;;;;;;;;;;2213021;67;1233;-64
2022/08/18 03:22:00;;;;;;;;;;;;;;;;;;2212190;66;1995;-64
2022/08/18 03:24:35;;;;;;;;;;;;;;;;;;2213776;67;1178;-64
2022/08/18 03:27:11;;;;;;;;;;;;;;;;;;2212907;67;1294;-63
2022/08/18 03:29:44;;;;;;;;;;;;;;;;;;2212712;67;1095;-64
2022/08/18 03:32:17;;;;;;;;;;;;;;;;;;2213035;66;1215;-64
2022/08/18 03:34:50;;;;;;;;;;;;;;;;;;2213326;59;1322;-64
2022/08/18 03:37:23;;;;;;;;;;;;;;;;;;2213180;59;1404;-65
2022/08/18 03:39:57;;;;;;;;;;;;;;;;;;2212682;66;1271;-63
2022/08/18 03:42:33;;;;;;;;;;;;;;;;;;2212678;67;1940;-64
2022/08/18 03:45:06;;;;;;;;;;;;;;;;;;2213593;67;1298;-62
2022/08/18 03:47:39;;;;;;;;;;;;;;;;;;2212425;67;1059;-64
2022/08/18 03:50:12;;;;;;;;;;;;;;;;;;2213155;66;1109;-64
2022/08/18 03:52:46;;;;;;;;;;;;;;;;;;2213092;66;1146;-64
2022/08/18 03:55:20;;;;;;;;;;;;;;;;;;2212154;66;1283;-61
2022/08/18 03:58:01;;;;;;;;;;;;;;;;;;2213121;67;1255;-64
2022/08/18 04:00:34;;;;;;;;;;;;;;;;;;2213529;66;1128;-62
2022/08/18 04:03:08;;;;;;;;;;;;;;;;;;2212354;59;1940;-62
2022/08/18 04:05:42;;;;;;;;;;;;;;;;;;2213026;59;1175;-64
2022/08/18 04:08:15;;;;;;;;;;;;;;;;;;2212603;66;1223;-63
2022/08/18 04:10:48;;;;;;;;;;;;;;;;;;2213154;59;1342;-64
2022/08/18 04:13:24;;;;;;;;;;;;;;;;;;2212766;67;1223;-64
2022/08/18 04:16:00;;;;;;;;;;;;;;;;;;2213150;67;1270;-63
2022/08/18 04:18:34;;;;;;;;;;;;;;;;;;2213582;67;1209;-65
2022/08/18 04:21:08;;;;;;;;;;;;;;;;;;2212621;67;1123;-62
2022/08/18 04:23:42;;;;;;;;;;;;;;;;;;2213311;67;1295;-64
2022/08/18 04:26:17;;;;;;;;;;;;;;;;;;2212868;66;1231;-63
2022/08/18 04:28:53;;;;;;;;;;;;;;;;;;2212844;66;1150;-63
2022/08/18 04:31:26;;;;;;;;;;;;;;;;;;2212547;66;1222;-64
2022/08/18 04:34:00;;;;;;;;;;;;;;;;;;2212904;59;1326;-62
2022/08/18 04:36:34;;;;;;;;;;;;;;;;;;2213579;59;1207;-64
2022/08/18 04:39:08;;;;;;;;;;;;;;;;;;2212271;66;1096;-65
2022/08/18 04:41:43;;;;;;;;;;;;;;;;;;2212476;67;1984;-64
2022/08/18 04:44:20;;;;;;;;;;;;;;;;;;2213020;59;1277;-64
2022/08/18 04:46:54;;;;;;;;;;;;;;;;;;2212466;67;1201;-64
2022/08/18 04:49:29;;;;;;;;;;;;;;;;;;2212373;66;1258;-64
2022/08/18 04:54:51;;;;;;;;;;;;;;;;;;2212893;67;1174;-64
2022/08/18 04:57:25;;;;;;;;;;;;;;;;;;2212369;66;1231;-63
2022/08/18 05:00:01;;;;;;;;;;;;;;;;;;2212561;66;1171;-64
2022/08/18 05:02:34;;;;;;;;;;;;;;;;;;2212222;59;1923;-64
2022/08/18 05:05:08;;;;;;;;;;;;;;;;;;2212281;67;1269;-65
2022/08/18 05:07:46;;;;;;;;;;;;;;;;;;2212702;67;1087;-65
2022/08/18 05:10:19;;;;;;;;;;;;;;;;;;2212478;66;1135;-64
2022/08/18 05:12:52;;;;;;;;;;;;;;;;;;2212866;59;1271;-63
2022/08/18 05:15:28;;;;;;;;;;;;;;;;;;2212666;66;1349;-64
2022/08/18 05:18:03;;;;;;;;;;;;;;;;;;2212920;67;1175;-62
2022/08/18 05:20:36;;;;;;;;;;;;;;;;;;2212409;67;1191;-64
2022/08/18 05:23:10;;;;;;;;;;;;;;;;;;2212319;67;1931;-64
2022/08/18 05:25:43;;;;;;;;;;;;;;;;;;2212530;67;1154;-59
2022/08/18 05:28:18;;;;;;;;;;;;;;;;;;2212348;66;1186;-62
2022/08/18 05:30:54;;;;;;;;;;;;;;;;;;2212700;67;1138;-64
2022/08/18 05:33:27;;;;;;;;;;;;;;;;;;2212545;59;1321;-65
2022/08/18 05:36:04;;;;;;;;;;;;;;;;;;2213308;59;1335;-63
2022/08/18 05:38:49;;;;;;;;;;;;;;;;;;2213131;59;1168;-63
2022/08/18 05:41:24;;;;;;;;;;;;;;;;;;2212623;66;1261;-64
2022/08/18 05:43:59;;;;;;;;;;;;;;;;;;2213520;59;1987;-64
2022/08/18 05:46:39;;;;;;;;;;;;;;;;;;2212370;67;1257;-64
2022/08/18 05:49:12;;;;;;;;;;;;;;;;;;2212756;67;1187;-64
2022/08/18 05:51:47;;;;;;;;;;;;;;;;;;2212794;67;1090;-64
2022/08/18 05:57:14;;;;;;;;;;;;;;;;;;2212108;67;1127;-64
2022/08/18 05:59:48;;;;;;;;;;;;;;;;;;2212783;67;1134;-61
2022/08/18 06:02:30;;;;;;;;;;;;;;;;;;2211564;59;1928;-63
2022/08/18 06:05:05;;;;;;;;;;;;;;;;;;2212838;59;1322;-62
2022/08/18 06:07:43;;;;;;;;;;;;;;;;;;2212435;67;1229;-62
2022/08/18 06:10:17;;;;;;;;;;;;;;;;;;2212663;66;1077;-64
2022/08/18 06:12:53;;;;;;;;;;;;;;;;;;2214053;59;1337;-63
2022/08/18 06:15:31;;;;;;;;;;;;;;;;;;2212884;66;1226;-63
2022/08/18 06:18:14;;;;;;;;;;;;;;;;;;2213635;66;1258;-63
2022/08/18 06:20:58;;;;;;;;;;;;;;;;;;2213212;67;1034;-62
2022/08/18 06:23:36;;;;;;;;;;;;;;;;;;2212765;67;1929;-63
2022/08/18 06:26:15;;;;;;;;;;;;;;;;;;2213643;67;1229;-61
2022/08/18 06:29:02;;;;;;;;;;;;;;;;;;2213698;67;1088;-63
2022/08/18 06:31:43;;;;;;;;;;;;;;;;;;2213085;67;1193;-59
2022/08/18 06:34:26;;;;;;;;;;;;;;;;;;2213124;59;1295;-63
2022/08/18 06:37:03;;;;;;;;;;;;;;;;;;2221160;53;3647;-78
2022/08/18 06:39:37;;;;;;;;;;;;;;;;;;2216140;66;1199;-76
2022/08/18 06:42:10;;;;;;;;;;;;;;;;;;2215420;66;1986;-76
2022/08/18 06:44:47;;;;;;;;;;;;;;;;;;2217075;58;1220;-76
2022/08/18 06:47:25;;;;;;;;;;;;;;;;;;2217934;66;1240;-76
2022/08/18 06:55:32;;;;;;;;;;;;;;;;;;2235336;58;2279;-53
2022/08/18 06:58:07;;;;;;;;;;;;;;;;;;2219244;58;1155;-53
2022/08/18 07:00:41;;;;;;;;;;;;;;;;;;2218111;59;1557;-54
2022/08/18 07:03:16;;;;;;;;;;;;;;;;;;2218462;58;1989;-54
2022/08/18 07:05:59;;;;;;;;;;;;;;;;;;2218921;66;1157;-56
2022/08/18 07:08:33;;;;;;;;;;;;;;;;;;2214368;53;2132;-77
2022/08/18 07:11:19;;;;;;;;;;;;;;;;;;2210358;59;1329;-76
2022/08/18 07:13:53;;;;;;;;;;;;;;;;;;2210024;59;1119;-76
2022/08/18 07:16:33;;;;;;;;;;;;;;;;;;2210511;67;1240;-76
2022/08/18 07:19:08;;;;;;;;;;;;;;;;;;2210208;59;2330;-76
2022/08/18 07:21:42;;;;;;;;;;;;;;;;;;2214594;53;3760;-61
2022/08/18 07:24:22;;;;;;;;;;;;;;;;;;2210168;59;1955;-63
2022/08/18 07:27:03;;;;;;;;;;;;;;;;;;2210008;59;1266;-62
2022/08/18 07:29:39;;;;;;;;;;;;;;;;;;2207108;67;1106;-60
2022/08/18 07:32:15;;;;;;;;;;;;;;;;;;2207693;59;1841;-59
2022/08/18 07:34:53;;;;;;;;;;;;;;;;;;2207443;59;1276;-61
2022/08/18 07:37:29;;;;;;;;;;;;;;;;;;2207782;59;1377;-62
2022/08/18 07:40:06;;;;;;;;;;;;;;;;;;2207297;67;1101;-62
2022/08/18 07:42:45;;;;;;;;;;;;;;;;;;2207220;67;1928;-60
2022/08/18 07:45:20;;;;;;;;;;;;;;;;;;2207508;67;1206;-58
2022/08/18 07:47:56;;;;;;;;;;;;;;;;;;2207100;67;1312;-59
2022/08/18 07:50:35;;;;;;;;;;;;;;;;;;2206197;67;1887;-64
2022/08/18 07:53:14;;;;;;;;;;;;;;;;;;2206865;59;1334;-61
2022/08/18 07:55:52;;;;;;;;;;;;;;;;;;2207097;67;1052;-61
2022/08/18 07:58:31;;;;;;;;;;;;;;;;;;2207209;67;1223;-62
2022/08/18 08:01:07;;;;;;;;;;;;;;;;;;2207105;67;992;-64
2022/08/18 08:03:47;;;;;;;;;;;;;;;;;;2207116;59;1991;-65
2022/08/18 08:06:22;;;;;;;;;;;;;;;;;;2207350;67;1243;-64
2022/08/18 08:09:03;;;;;;;;;;;;;;;;;;2206318;60;1278;-61
2022/08/18 08:11:43;;;;;;;;;;;;;;;;;;2207024;59;1381;-61
2022/08/18 08:14:38;;;;;;;;;;;;;;;;;;2206787;67;1226;-62
2022/08/18 08:17:16;;;;;;;;;;;;;;;;;;2206701;67;1237;-60
2022/08/18 08:20:07;;;;;;;;;;;;;;;;;;2206675;59;1186;-61
2022/08/18 08:22:41;;;;;;;;;;;;;;;;;;2207810;59;1964;-62
2022/08/18 08:25:20;;;;;;;;;;;;;;;;;;2207957;67;1081;-60
2022/08/18 08:28:06;;;;;;;;;;;;;;;;;;2207318;67;1203;-61
2022/08/18 08:30:46;;;;;;;;;;;;;;;;;;2206935;67;1146;-63
2022/08/18 08:33:24;;;;;;;;;;;;;;;;;;2207868;59;1307;-62
2022/08/18 08:36:00;;;;;;;;;;;;;;;;;;2207282;59;1338;-61
2022/08/18 08:38:40;;;;;;;;;;;;;;;;;;2207663;59;1347;-64
2022/08/18 08:41:14;;;;;;;;;;;;;;;;;;2207466;67;1268;-65
2022/08/18 08:43:50;;;;;;;;;;;;;;;;;;2207430;59;1987;-63
2022/08/18 08:46:30;;;;;;;;;;;;;;;;;;2207290;67;1237;-65
2022/08/18 08:49:07;;;;;;;;;;;;;;;;;;2207606;67;1230;-63
2022/08/18 08:51:45;;;;;;;;;;;;;;;;;;2207205;67;1133;-62
2022/08/18 08:54:22;;;;;;;;;;;;;;;;;;2206472;59;1086;-65
2022/08/18 08:56:57;;;;;;;;;;;;;;;;;;2207563;67;1258;-64
2022/08/18 08:59:30;;;;;;;;;;;;;;;;;;2207314;67;1115;-63
2022/08/18 09:02:14;;;;;;;;;;;;;;;;;;2206912;59;1644;-64
2022/08/18 09:04:52;;;;;;;;;;;;;;;;;;2207464;59;2007;-63
2022/08/18 09:07:34;;;;;;;;;;;;;;;;;;2207381;67;1275;-65
2022/08/18 09:10:27;;;;;;;;;;;;;;;;;;2207380;67;1122;-63
2022/08/18 09:13:09;;;;;;;;;;;;;;;;;;2207126;59;1305;-64
2022/08/18 09:15:47;;;;;;;;;;;;;;;;;;2206915;67;1142;-64
2022/08/18 09:18:32;;;;;;;;;;;;;;;;;;2207166;67;1287;-65
2022/08/18 09:21:19;;;;;;;;;;;;;;;;;;2207629;67;1119;-64
2022/08/18 09:23:54;;;;;;;;;;;;;;;;;;2207453;67;1978;-64
2022/08/18 09:26:40;;;;;;;;;;;;;;;;;;2207428;67;1312;-65
2022/08/18 09:29:22;;;;;;;;;;;;;;;;;;2207499;67;1184;-64
2022/08/18 09:32:13;;;;;;;;;;;;;;;;;;2206946;67;1278;-65
2022/08/18 09:34:56;;;;;;;;;;;;;;;;;;2207405;59;1184;-65
2022/08/18 09:37:32;;;;;;;;;;;;;;;;;;2207059;59;1402;-64
2022/08/18 09:43:17;;;;;;;;;;;;;;;;;;2200681;59;1942;-62
2022/08/18 09:45:55;;;;;;;;;;;;;;;;;;2200855;67;1172;-64
2022/08/18 09:48:33;;;;;;;;;;;;;;;;;;2205104;67;1321;-64
2022/08/18 09:51:25;;;;;;;;;;;;;;;;;;2207506;67;1128;-65
2022/08/18 09:54:19;;;;;;;;;;;;;;;;;;2207297;67;1333;-63
2022/08/18 09:57:10;;;;;;;;;;;;;;;;;;2207406;67;1312;-65
2022/08/18 10:00:01;;;;;;;;;;;;;;;;;;2206312;67;2241;-60
2022/08/18 10:02:52;;;;;;;;;;;;;;;;;;2206190;59;1561;-65
2022/08/18 10:05:28;;;;;;;;;;;;;;;;;;2207344;67;1984;-64
2022/08/18 10:08:18;;;;;;;;;;;;;;;;;;2207129;67;1298;-64
2022/08/18 10:10:53;;;;;;;;;;;;;;;;;;2207115;59;1524;-65
2022/08/18 10:13:31;;;;;;;;;;;;;;;;;;2206959;67;1217;-65
2022/08/18 10:16:15;;;;;;;;;;;;;;;;;;2207060;67;1040;-65
2022/08/18 10:19:06;;;;;;;;;;;;;;;;;;2207176;67;1307;-63
2022/08/18 10:22:13;;;;;;;;;;;;;;;;;;2206323;60;1065;-64
2022/08/18 10:24:53;;;;;;;;;;;;;;;;;;2200447;67;1932;-64
2022/08/18 10:27:37;;;;;;;;;;;;;;;;;;2201132;67;1215;-64
2022/08/18 10:30:31;;;;;;;;;;;;;;;;;;2204050;67;1194;-64
2022/08/18 10:33:08;;;;;;;;;;;;;;;;;;2208442;67;2292;-62
2022/08/18 10:35:56;;;;;;;;;;;;;;;;;;2207894;59;1380;-64
2022/08/18 10:38:42;;;;;;;;;;;;;;;;;;2207615;67;1251;-64
2022/08/18 10:41:21;;;;;;;;;;;;;;;;;;2207128;67;1246;-65
2022/08/18 10:43:55;;;;;;;;;;;;;;;;;;2206716;59;1979;-62
2022/08/18 10:46:30;;;;;;;;;;;;;;;;;;2207479;67;1258;-65
2022/08/18 10:49:08;;;;;;;;;;;;;;;;;;2207793;67;1174;-65
2022/08/18 10:51:46;;;;;;;;;;;;;;;;;;2207125;67;1141;-64
2022/08/18 10:54:24;;;;;;;;;;;;;;;;;;2206839;67;1249;-64
2022/08/18 10:57:02;;;;;;;;;;;;;;;;;;2207327;67;1249;-64
2022/08/18 10:59:40;;;;;;;;;;;;;;;;;;2207784;67;1112;-64
2022/08/18 11:02:23;;;;;;;;;;;;;;;;;;2205578;59;1691;-63
2022/08/18 11:05:03;;;;;;;;;;;;;;;;;;2207315;59;1930;-63
2022/08/18 11:07:41;;;;;;;;;;;;;;;;;;2207694;67;1276;-63
2022/08/18 11:10:19;;;;;;;;;;;;;;;;;;2206135;67;1195;-64
2022/08/18 11:13:02;;;;;;;;;;;;;;;;;;2207043;59;1243;-64
2022/08/18 11:15:42;;;;;;;;;;;;;;;;;;2207544;67;1135;-64
2022/08/18 11:18:27;;;;;;;;;;;;;;;;;;2206680;67;1294;-64
2022/08/18 11:21:19;;;;;;;;;;;;;;;;;;2206872;67;1219;-62
2022/08/18 11:24:10;;;;;;;;;;;;;;;;;;2207293;59;1946;-63
2022/08/18 11:26:45;;;;;;;;;;;;;;;;;;2207394;67;1280;-62
2022/08/18 11:29:31;;;;;;;;;;;;;;;;;;2207172;67;1207;-63
2022/08/18 11:32:07;;;;;;;;;;;;;;;;;;2207064;67;1211;-64
2022/08/18 11:34:42;;;;;;;;;;;;;;;;;;2208267;59;1289;-63
2022/08/18 11:37:22;;;;;;;;;;;;;;;;;;2206945;59;1923;-60
2022/08/18 11:40:00;;;;;;;;;;;;;;;;;;2207098;59;1215;-63
2022/08/18 11:42:34;;;;;;;;;;;;;;;;;;2208211;59;1232;-61
2022/08/18 11:45:15;;;;;;;;;;;;;;;;;;2207886;59;1941;-64
2022/08/18 11:48:01;;;;;;;;;;;;;;;;;;2207210;67;1233;-64
2022/08/18 11:50:35;;;;;;;;;;;;;;;;;;2207494;59;1243;-63
2022/08/18 11:53:17;;;;;;;;;;;;;;;;;;2207141;59;1214;-64
2022/08/18 11:56:07;;;;;;;;;;;;;;;;;;2206667;67;1066;-62
2022/08/18 11:58:45;;;;;;;;;;;;;;;;;;2207709;67;1259;-65
2022/08/18 12:01:42;;;;;;;;;;;;;;;;;;2208068;59;1576;-62
2022/08/18 12:04:17;;;;;;;;;;;;;;;;;;2208936;59;2068;-64
2022/08/18 12:06:58;;;;;;;;;;;;;;;;;;2208333;59;2862;-62
2022/08/18 12:09:35;;;;;;;;;;;;;;;;;;2207970;67;1231;-63
2022/08/18 12:12:15;;;;;;;;;;;;;;;;;;2209612;59;1330;-65
2022/08/18 12:15:00;;;;;;;;;;;;;;;;;;2208136;67;1231;-63
2022/08/18 12:17:33;;;;;;;;;;;;;;;;;;2208357;67;1252;-63
2022/08/18 12:20:07;;;;;;;;;;;;;;;;;;2206588;67;1151;-65
2022/08/18 12:22:43;;;;;;;;;;;;;;;;;;2207768;59;1095;-60
2022/08/18 12:25:18;;;;;;;;;;;;;;;;;;2207367;67;1992;-62
2022/08/18 12:27:51;;;;;;;;;;;;;;;;;;2207220;67;1235;-64
2022/08/18 12:30:27;;;;;;;;;;;;;;;;;;2207758;67;1259;-64
2022/08/18 12:33:00;;;;;;;;;;;;;;;;;;2207068;59;1931;-63
2022/08/18 12:35:34;;;;;;;;;;;;;;;;;;2206960;59;1621;-64
2022/08/18 12:38:07;;;;;;;;;;;;;;;;;;2207635;67;1309;-65
2022/08/18 12:40:41;;;;;;;;;;;;;;;;;;2207393;67;1094;-62
2022/08/18 12:43:14;;;;;;;;;;;;;;;;;;2206596;59;2064;-62
2022/08/18 12:45:50;;;;;;;;;;;;;;;;;;2207708;67;1941;-64
2022/08/18 12:48:25;;;;;;;;;;;;;;;;;;2206941;59;1834;-63
2022/08/18 12:50:59;;;;;;;;;;;;;;;;;;2207549;59;1392;-62
2022/08/18 12:53:32;;;;;;;;;;;;;;;;;;2207385;67;1490;-63
2022/08/18 12:56:06;;;;;;;;;;;;;;;;;;2207363;59;1133;-64
2022/08/18 12:58:40;;;;;;;;;;;;;;;;;;2207167;67;1246;-62
2022/08/18 13:01:16;;;;;;;;;;;;;;;;;;2206026;67;1095;-63
2022/08/18 13:03:50;;;;;;;;;;;;;;;;;;2206957;59;1377;-63
2022/08/18 13:06:23;;;;;;;;;;;;;;;;;;2207163;67;1940;-62
2022/08/18 13:08:56;;;;;;;;;;;;;;;;;;2206944;67;1309;-62
2022/08/18 13:11:29;;;;;;;;;;;;;;;;;;2207182;59;1362;-62
2022/08/18 13:14:02;;;;;;;;;;;;;;;;;;2206730;67;1083;-64
2022/08/18 13:16:41;;;;;;;;;;;;;;;;;;2207083;67;1109;-64
2022/08/18 13:19:15;;;;;;;;;;;;;;;;;;2206498;67;1228;-64
2022/08/18 13:21:48;;;;;;;;;;;;;;;;;;2206437;59;1199;-64
2022/08/18 13:24:21;;;;;;;;;;;;;;;;;;2206969;67;1227;-64
2022/08/18 13:26:55;;;;;;;;;;;;;;;;;;2206742;67;1247;-65
2022/08/18 13:29:28;;;;;;;;;;;;;;;;;;2206100;67;1254;-65
2022/08/18 13:32:08;;;;;;;;;;;;;;;;;;2207059;67;1062;-64
2022/08/18 13:34:41;;;;;;;;;;;;;;;;;;2207405;67;1160;-65
2022/08/18 13:37:14;;;;;;;;;;;;;;;;;;2207015;59;1326;-64
2022/08/18 13:39:47;;;;;;;;;;;;;;;;;;2206604;67;1098;-63
2022/08/18 13:42:20;;;;;;;;;;;;;;;;;;2206703;67;1226;-63
2022/08/18 13:44:54;;;;;;;;;;;;;;;;;;2206135;59;1928;-64
2022/08/18 13:47:30;;;;;;;;;;;;;;;;;;2207098;67;1207;-64
2022/08/18 13:50:04;;;;;;;;;;;;;;;;;;2206064;67;1183;-64
2022/08/18 13:52:38;;;;;;;;;;;;;;;;;;2207578;67;1195;-65
2022/08/18 13:55:12;;;;;;;;;;;;;;;;;;2207421;67;1206;-64
2022/08/18 13:57:47;;;;;;;;;;;;;;;;;;2207736;67;1250;-63
2022/08/18 14:00:22;;;;;;;;;;;;;;;;;;2207916;67;1235;-64
2022/08/18 14:02:59;;;;;;;;;;;;;;;;;;2206299;59;1521;-62
2022/08/18 14:05:33;;;;;;;;;;;;;;;;;;2206931;67;1970;-62
2022/08/18 14:08:06;;;;;;;;;;;;;;;;;;2207202;67;1259;-62
2022/08/18 14:10:40;;;;;;;;;;;;;;;;;;2207105;59;1315;-63
2022/08/18 14:13:14;;;;;;;;;;;;;;;;;;2207669;67;1178;-63
2022/08/18 14:15:47;;;;;;;;;;;;;;;;;;2206955;67;1218;-65
2022/08/18 14:18:25;;;;;;;;;;;;;;;;;;2207718;67;1225;-64
2022/08/18 14:29:24;;;;;;;;;;;;;;;;;;2206892;67;2329;-65
2022/08/18 14:31:57;;;;;;;;;;;;;;;;;;2207362;67;1215;-64
2022/08/18 14:34:33;;;;;;;;;;;;;;;;;;2207875;59;1244;-63
2022/08/18 14:37:06;;;;;;;;;;;;;;;;;;2208149;59;1365;-63
2022/08/18 14:39:39;;;;;;;;;;;;;;;;;;2207496;67;1207;-64
2022/08/18 14:42:13;;;;;;;;;;;;;;;;;;2207897;67;1246;-64
2022/08/18 14:44:47;;;;;;;;;;;;;;;;;;2207264;59;1351;-65
2022/08/18 14:47:20;;;;;;;;;;;;;;;;;;2208058;67;1977;-64
2022/08/18 14:49:56;;;;;;;;;;;;;;;;;;2207389;67;1238;-63
2022/08/18 14:52:30;;;;;;;;;;;;;;;;;;2208211;67;1151;-66
2022/08/18 14:55:03;;;;;;;;;;;;;;;;;;2207662;59;1207;-65
2022/08/18 14:57:36;;;;;;;;;;;;;;;;;;2207873;67;1262;-64
2022/08/18 15:00:13;;;;;;;;;;;;;;;;;;2207579;59;1203;-65
2022/08/18 15:02:47;;;;;;;;;;;;;;;;;;2206717;59;1594;-62
2022/08/18 15:05:24;;;;;;;;;;;;;;;;;;2207866;67;1920;-65
2022/08/18 15:07:57;;;;;;;;;;;;;;;;;;2207523;67;1274;-64
2022/08/18 15:10:31;;;;;;;;;;;;;;;;;;2207264;67;1232;-64
2022/08/18 15:13:04;;;;;;;;;;;;;;;;;;2207500;67;1298;-65
2022/08/18 15:15:37;;;;;;;;;;;;;;;;;;2207470;67;1246;-65
2022/08/18 15:18:10;;;;;;;;;;;;;;;;;;2206870;67;1311;-65
2022/08/18 15:26:26;;;;;;;;;;;;;;;;;;2207292;67;1989;-63
2022/08/18 15:28:59;;;;;;;;;;;;;;;;;;2207018;67;1302;-62
2022/08/18 15:31:32;;;;;;;;;;;;;;;;;;2206726;67;1178;-64
2022/08/18 15:34:05;;;;;;;;;;;;;;;;;;2207178;59;1208;-64
2022/08/18 15:36:41;;;;;;;;;;;;;;;;;;2206742;67;1442;-64
2022/08/18 15:39:15;;;;;;;;;;;;;;;;;;2206917;67;1214;-63
2022/08/18 15:41:48;;;;;;;;;;;;;;;;;;2206777;67;1088;-64
2022/08/18 15:44:22;;;;;;;;;;;;;;;;;;2206825;59;1204;-64
2022/08/18 15:46:55;;;;;;;;;;;;;;;;;;2206981;67;1986;-64
2022/08/18 15:49:29;;;;;;;;;;;;;;;;;;2206414;67;1566;-62
2022/08/18 15:52:05;;;;;;;;;;;;;;;;;;2206673;67;1256;-64
2022/08/18 15:54:39;;;;;;;;;;;;;;;;;;2207394;67;1238;-60
2022/08/18 15:57:12;;;;;;;;;;;;;;;;;;2207943;67;1259;-66
2022/08/18 15:59:46;;;;;;;;;;;;;;;;;;2206800;67;1539;-63
2022/08/18 16:02:19;;;;;;;;;;;;;;;;;;2208087;59;1539;-61
2022/08/18 16:04:53;;;;;;;;;;;;;;;;;;2206833;59;1682;-61
2022/08/18 16:07:29;;;;;;;;;;;;;;;;;;2206316;67;1973;-65
2022/08/18 16:10:03;;;;;;;;;;;;;;;;;;2206434;67;1509;-61
2022/08/18 16:12:36;;;;;;;;;;;;;;;;;;2207137;67;1269;-62
2022/08/18 16:15:10;;;;;;;;;;;;;;;;;;2206537;67;1144;-63
2022/08/18 16:17:44;;;;;;;;;;;;;;;;;;2207486;67;1254;-64
2022/08/18 16:20:17;;;;;;;;;;;;;;;;;;2207563;67;1197;-64
2022/08/18 16:22:54;;;;;;;;;;;;;;;;;;2206838;59;1191;-64
2022/08/18 16:25:27;;;;;;;;;;;;;;;;;;2207660;67;1964;-64
2022/08/18 16:28:01;;;;;;;;;;;;;;;;;;2207741;67;1287;-64
2022/08/18 16:30:35;;;;;;;;;;;;;;;;;;2207203;67;1714;-65
2022/08/18 16:33:08;;;;;;;;;;;;;;;;;;2206919;59;1390;-65
2022/08/18 16:35:43;;;;;;;;;;;;;;;;;;2207636;59;1434;-64
2022/08/18 16:38:19;;;;;;;;;;;;;;;;;;2207385;67;1247;-64
2022/08/18 16:40:53;;;;;;;;;;;;;;;;;;2206581;67;1210;-63
2022/08/18 16:43:26;;;;;;;;;;;;;;;;;;2207517;67;1271;-61
2022/08/18 16:46:01;;;;;;;;;;;;;;;;;;2207126;67;1990;-64
2022/08/18 16:48:34;;;;;;;;;;;;;;;;;;2207744;67;1259;-65
2022/08/18 16:51:08;;;;;;;;;;;;;;;;;;2207142;67;1136;-65
2022/08/18 16:53:45;;;;;;;;;;;;;;;;;;2207280;67;1091;-65
2022/08/18 16:56:19;;;;;;;;;;;;;;;;;;2207316;62;1206;-62
2022/08/18 17:04:33;;;;;;;;;;;;;;;;;;2207287;59;1253;-65
2022/08/18 17:07:07;;;;;;;;;;;;;;;;;;2206856;67;1983;-64
2022/08/18 17:09:43;;;;;;;;;;;;;;;;;;2206719;67;1421;-65
2022/08/18 17:12:16;;;;;;;;;;;;;;;;;;2206985;59;1245;-65
2022/08/18 17:14:50;;;;;;;;;;;;;;;;;;2207213;67;1110;-66
2022/08/18 17:17:24;;;;;;;;;;;;;;;;;;2207410;67;1261;-65
2022/08/18 17:19:57;;;;;;;;;;;;;;;;;;2207143;67;1156;-65
2022/08/18 17:22:30;;;;;;;;;;;;;;;;;;2208618;59;1809;-65
2022/08/18 17:25:06;;;;;;;;;;;;;;;;;;2207499;59;1256;-65
2022/08/18 17:27:41;;;;;;;;;;;;;;;;;;2206756;67;2043;-65
2022/08/18 17:30:15;;;;;;;;;;;;;;;;;;2206524;67;1245;-65
2022/08/18 17:32:52;;;;;;;;;;;;;;;;;;2203303;67;1712;-65
2022/08/18 17:35:28;;;;;;;;;;;;;;;;;;2207224;67;1661;-62
2022/08/18 17:38:04;;;;;;;;;;;;;;;;;;2207171;67;1332;-65
2022/08/18 17:40:43;;;;;;;;;;;;;;;;;;2206979;67;1100;-65
2022/08/18 17:43:18;;;;;;;;;;;;;;;;;;2206940;59;1221;-63
2022/08/18 17:45:55;;;;;;;;;;;;;;;;;;2207205;67;1171;-66
2022/08/18 17:48:30;;;;;;;;;;;;;;;;;;2206427;67;1624;-65
2022/08/18 17:53:54;;;;;;;;;;;;;;;;;;2206824;67;1190;-64
2022/08/18 17:56:34;;;;;;;;;;;;;;;;;;2207286;67;1167;-66
2022/08/18 17:59:10;;;;;;;;;;;;;;;;;;2207099;67;1271;-65
2022/08/18 18:01:44;;;;;;;;;;;;;;;;;;2207149;59;1619;-67
2022/08/18 18:04:17;;;;;;;;;;;;;;;;;;2206955;59;1655;-64
2022/08/18 18:06:51;;;;;;;;;;;;;;;;;;2207545;67;1970;-66
2022/08/18 18:09:31;;;;;;;;;;;;;;;;;;2207628;67;1905;-65
2022/08/18 18:12:22;;;;;;;;;;;;;;;;;;2207536;59;1235;-65
2022/08/18 18:14:55;;;;;;;;;;;;;;;;;;2207465;67;1213;-62
2022/08/18 18:17:31;;;;;;;;;;;;;;;;;;2207509;67;1298;-65
2022/08/18 18:20:14;;;;;;;;;;;;;;;;;;2207395;67;2212;-66
2022/08/18 18:22:47;;;;;;;;;;;;;;;;;;2208132;59;1116;-65
2022/08/18 18:25:31;;;;;;;;;;;;;;;;;;2208005;67;1295;-64
2022/08/18 18:28:26;;;;;;;;;;;;;;;;;;2207853;67;1994;-65
2022/08/18 18:31:17;;;;;;;;;;;;;;;;;;2208116;67;1237;-65
2022/08/18 18:33:56;;;;;;;;;;;;;;;;;;2207876;59;1350;-64
2022/08/18 18:36:34;;;;;;;;;;;;;;;;;;2208193;59;1342;-64
2022/08/18 18:39:12;;;;;;;;;;;;;;;;;;2208394;67;1490;-65
2022/08/18 18:41:46;;;;;;;;;;;;;;;;;;2207951;67;1737;-62
2022/08/18 18:44:28;;;;;;;;;;;;;;;;;;2207707;59;1683;-61
2022/08/18 18:47:07;;;;;;;;;;;;;;;;;;2207248;67;1934;-64
2022/08/18 18:49:45;;;;;;;;;;;;;;;;;;2207170;67;1987;-61
2022/08/18 18:52:25;;;;;;;;;;;;;;;;;;2207093;67;1210;-63
2022/08/18 18:55:02;;;;;;;;;;;;;;;;;;2207731;60;1106;-65
2022/08/18 18:57:41;;;;;;;;;;;;;;;;;;2208020;67;1240;-65
2022/08/18 19:00:21;;;;;;;;;;;;;;;;;;2207254;67;1192;-63
2022/08/18 19:03:01;;;;;;;;;;;;;;;;;;2206689;59;1866;-63